Sumburgh, United Kingdom
Current Conditions -  °F | °C
As of 11:20 PM on Monday 22 Dec 2014 (Local Time) from EGPB Reporting Station
Rain Showers Rain Showers  
Wind Chill: 30°   Ceiling: Unl
Heat Index: 41°   Visibility: 4mi
Dew Point: 36°   Wind: 26mph
Humidity: 81%   Direction: 270°W
Pressure: 29.29"   Gusts: 48mph
Location:  59.87°N, 1.29°W
Report Text: EGPB 222320Z AUTO 27023G42KT 7000 -SHRA FEW012/// 05/02 Q0992
Loading
Personal Weather Stations






























Interactive Weather Map New forecast layout! Learn more

10-Day Weather Forecast

Advertisements
Track Severe Weather on mobile